sensor_id;sensor_type;location;lat;lon;timestamp;P1;durP1;ratioP1;P2;durP2;ratioP2
58240;SDS011;45058;55.772;38.224;2023-08-17T00:02:12;31.60;;;15.00;;
58240;SDS011;45058;55.772;38.224;2023-08-17T00:04:39;33.78;;;16.42;;
58240;SDS011;45058;55.772;38.224;2023-08-17T00:07:05;24.25;;;14.60;;
58240;SDS011;45058;55.772;38.224;2023-08-17T00:09:32;30.13;;;15.63;;
58240;SDS011;45058;55.772;38.224;2023-08-17T00:11:58;20.70;;;13.10;;
58240;SDS011;45058;55.772;38.224;2023-08-17T00:14:24;25.67;;;12.75;;
58240;SDS011;45058;55.772;38.224;2023-08-17T00:16:51;22.60;;;13.85;;
58240;SDS011;45058;55.772;38.224;2023-08-17T00:19:17;28.42;;;15.45;;
58240;SDS011;45058;55.772;38.224;2023-08-17T00:21:46;24.05;;;15.77;;
58240;SDS011;45058;55.772;38.224;2023-08-17T00:24:12;21.65;;;14.40;;
58240;SDS011;45058;55.772;38.224;2023-08-17T00:26:38;25.52;;;13.55;;
58240;SDS011;45058;55.772;38.224;2023-08-17T00:29:04;24.63;;;14.07;;
58240;SDS011;45058;55.772;38.224;2023-08-17T00:31:30;26.23;;;12.65;;
58240;SDS011;45058;55.772;38.224;2023-08-17T00:33:56;25.17;;;13.05;;
58240;SDS011;45058;55.772;38.224;2023-08-17T00:36:23;35.85;;;13.38;;
58240;SDS011;45058;55.772;38.224;2023-08-17T00:38:50;25.88;;;13.48;;
58240;SDS011;45058;55.772;38.224;2023-08-17T00:41:16;26.42;;;12.15;;
58240;SDS011;45058;55.772;38.224;2023-08-17T00:43:42;24.85;;;12.73;;
58240;SDS011;45058;55.772;38.224;2023-08-17T00:46:08;26.08;;;13.02;;
58240;SDS011;45058;55.772;38.224;2023-08-17T00:48:34;18.60;;;11.93;;
58240;SDS011;45058;55.772;38.224;2023-08-17T00:51:00;23.00;;;11.85;;
58240;SDS011;45058;55.772;38.224;2023-08-17T00:53:28;18.17;;;12.23;;
58240;SDS011;45058;55.772;38.224;2023-08-17T00:55:55;22.15;;;11.27;;
58240;SDS011;45058;55.772;38.224;2023-08-17T00:58:21;24.88;;;12.63;;
58240;SDS011;45058;55.772;38.224;2023-08-17T01:00:47;22.52;;;11.60;;
58240;SDS011;45058;55.772;38.224;2023-08-17T01:03:13;19.08;;;11.82;;
58240;SDS011;45058;55.772;38.224;2023-08-17T01:05:41;23.70;;;12.30;;
58240;SDS011;45058;55.772;38.224;2023-08-17T01:08:06;26.70;;;13.02;;
58240;SDS011;45058;55.772;38.224;2023-08-17T01:16:24;21.63;;;12.35;;
58240;SDS011;45058;55.772;38.224;2023-08-17T01:18:52;22.60;;;11.15;;
58240;SDS011;45058;55.772;38.224;2023-08-17T01:21:18;18.23;;;10.88;;
58240;SDS011;45058;55.772;38.224;2023-08-17T01:23:48;22.50;;;12.57;;
58240;SDS011;45058;55.772;38.224;2023-08-17T01:26:15;25.60;;;14.00;;
58240;SDS011;45058;55.772;38.224;2023-08-17T01:28:44;33.65;;;14.23;;
58240;SDS011;45058;55.772;38.224;2023-08-17T01:31:11;24.65;;;13.15;;
58240;SDS011;45058;55.772;38.224;2023-08-17T01:33:56;24.40;;;12.63;;
58240;SDS011;45058;55.772;38.224;2023-08-17T01:36:26;21.02;;;12.48;;
58240;SDS011;45058;55.772;38.224;2023-08-17T01:39:01;21.08;;;11.95;;
58240;SDS011;45058;55.772;38.224;2023-08-17T01:41:29;21.05;;;12.30;;
58240;SDS011;45058;55.772;38.224;2023-08-17T01:43:56;25.73;;;14.13;;
58240;SDS011;45058;55.772;38.224;2023-08-17T01:46:22;22.20;;;13.50;;
58240;SDS011;45058;55.772;38.224;2023-08-17T01:48:48;26.00;;;12.63;;
58240;SDS011;45058;55.772;38.224;2023-08-17T01:51:18;17.67;;;12.70;;
58240;SDS011;45058;55.772;38.224;2023-08-17T01:53:47;22.63;;;12.85;;
58240;SDS011;45058;55.772;38.224;2023-08-17T01:56:13;26.27;;;13.50;;
58240;SDS011;45058;55.772;38.224;2023-08-17T01:58:39;17.52;;;12.98;;
58240;SDS011;45058;55.772;38.224;2023-08-17T02:01:05;21.27;;;12.27;;
58240;SDS011;45058;55.772;38.224;2023-08-17T02:03:31;18.92;;;12.70;;
58240;SDS011;45058;55.772;38.224;2023-08-17T02:05:58;22.08;;;11.35;;
58240;SDS011;45058;55.772;38.224;2023-08-17T02:08:24;21.48;;;11.52;;
58240;SDS011;45058;55.772;38.224;2023-08-17T02:10:52;24.35;;;12.65;;
58240;SDS011;45058;55.772;38.224;2023-08-17T02:13:22;22.10;;;11.57;;
58240;SDS011;45058;55.772;38.224;2023-08-17T02:15:49;23.88;;;13.20;;
58240;SDS011;45058;55.772;38.224;2023-08-17T02:18:15;17.95;;;12.55;;
58240;SDS011;45058;55.772;38.224;2023-08-17T02:20:41;24.20;;;12.27;;
58240;SDS011;45058;55.772;38.224;2023-08-17T02:23:07;21.65;;;12.38;;
58240;SDS011;45058;55.772;38.224;2023-08-17T02:25:33;17.50;;;11.90;;
58240;SDS011;45058;55.772;38.224;2023-08-17T02:28:02;24.48;;;14.38;;
58240;SDS011;45058;55.772;38.224;2023-08-17T02:30:29;25.90;;;13.57;;
58240;SDS011;45058;55.772;38.224;2023-08-17T02:32:58;20.08;;;12.27;;
58240;SDS011;45058;55.772;38.224;2023-08-17T02:35:24;18.90;;;11.85;;
58240;SDS011;45058;55.772;38.224;2023-08-17T02:37:51;21.50;;;12.57;;
58240;SDS011;45058;55.772;38.224;2023-08-17T02:40:17;25.83;;;11.52;;
58240;SDS011;45058;55.772;38.224;2023-08-17T02:42:45;24.25;;;12.73;;
58240;SDS011;45058;55.772;38.224;2023-08-17T02:45:11;17.63;;;11.75;;
58240;SDS011;45058;55.772;38.224;2023-08-17T02:47:37;18.65;;;10.93;;
58240;SDS011;45058;55.772;38.224;2023-08-17T02:50:03;23.10;;;12.48;;
58240;SDS011;45058;55.772;38.224;2023-08-17T02:52:31;20.95;;;12.98;;
58240;SDS011;45058;55.772;38.224;2023-08-17T02:54:57;19.55;;;11.35;;
58240;SDS011;45058;55.772;38.224;2023-08-17T02:57:22;23.05;;;12.75;;
58240;SDS011;45058;55.772;38.224;2023-08-17T02:59:49;21.88;;;12.63;;
58240;SDS011;45058;55.772;38.224;2023-08-17T03:02:15;20.95;;;12.60;;
58240;SDS011;45058;55.772;38.224;2023-08-17T03:04:41;21.85;;;12.52;;
58240;SDS011;45058;55.772;38.224;2023-08-17T03:07:07;20.63;;;12.25;;
58240;SDS011;45058;55.772;38.224;2023-08-17T03:09:33;18.38;;;13.10;;
58240;SDS011;45058;55.772;38.224;2023-08-17T03:11:59;22.33;;;12.77;;
58240;SDS011;45058;55.772;38.224;2023-08-17T03:14:25;20.30;;;13.05;;
58240;SDS011;45058;55.772;38.224;2023-08-17T03:16:51;19.15;;;12.80;;
58240;SDS011;45058;55.772;38.224;2023-08-17T03:19:18;18.45;;;13.15;;
58240;SDS011;45058;55.772;38.224;2023-08-17T03:21:44;19.88;;;11.93;;
58240;SDS011;45058;55.772;38.224;2023-08-17T03:24:10;31.73;;;13.52;;
58240;SDS011;45058;55.772;38.224;2023-08-17T03:26:36;17.67;;;11.88;;
58240;SDS011;45058;55.772;38.224;2023-08-17T03:29:02;23.92;;;13.63;;
58240;SDS011;45058;55.772;38.224;2023-08-17T03:31:28;19.70;;;12.30;;
58240;SDS011;45058;55.772;38.224;2023-08-17T03:33:55;22.35;;;11.95;;
58240;SDS011;45058;55.772;38.224;2023-08-17T03:36:22;22.48;;;12.35;;
58240;SDS011;45058;55.772;38.224;2023-08-17T03:38:48;23.77;;;12.15;;
58240;SDS011;45058;55.772;38.224;2023-08-17T03:41:14;20.75;;;13.10;;
58240;SDS011;45058;55.772;38.224;2023-08-17T03:43:40;18.65;;;11.55;;
58240;SDS011;45058;55.772;38.224;2023-08-17T03:46:06;22.20;;;11.73;;
58240;SDS011;45058;55.772;38.224;2023-08-17T03:48:33;22.48;;;12.38;;
58240;SDS011;45058;55.772;38.224;2023-08-17T03:50:59;20.63;;;11.05;;
58240;SDS011;45058;55.772;38.224;2023-08-17T03:53:27;22.00;;;10.80;;
58240;SDS011;45058;55.772;38.224;2023-08-17T03:55:53;17.17;;;10.82;;
58240;SDS011;45058;55.772;38.224;2023-08-17T03:58:19;18.15;;;10.25;;
58240;SDS011;45058;55.772;38.224;2023-08-17T04:00:48;20.58;;;11.10;;
58240;SDS011;45058;55.772;38.224;2023-08-17T04:03:16;21.42;;;10.48;;
58240;SDS011;45058;55.772;38.224;2023-08-17T04:05:43;14.20;;;9.32;;
58240;SDS011;45058;55.772;38.224;2023-08-17T04:08:08;13.63;;;9.23;;
58240;SDS011;45058;55.772;38.224;2023-08-17T04:10:34;16.40;;;9.32;;
58240;SDS011;45058;55.772;38.224;2023-08-17T04:13:00;24.58;;;9.48;;
58240;SDS011;45058;55.772;38.224;2023-08-17T04:15:26;17.17;;;8.98;;
58240;SDS011;45058;55.772;38.224;2023-08-17T04:17:52;16.08;;;9.00;;
58240;SDS011;45058;55.772;38.224;2023-08-17T04:20:18;15.48;;;8.50;;
58240;SDS011;45058;55.772;38.224;2023-08-17T04:22:44;14.90;;;8.00;;
58240;SDS011;45058;55.772;38.224;2023-08-17T04:25:10;22.35;;;8.57;;
58240;SDS011;45058;55.772;38.224;2023-08-17T04:27:36;15.23;;;8.90;;
58240;SDS011;45058;55.772;38.224;2023-08-17T04:30:03;17.27;;;8.02;;
58240;SDS011;45058;55.772;38.224;2023-08-17T04:32:37;16.23;;;7.38;;
58240;SDS011;45058;55.772;38.224;2023-08-17T04:35:03;23.65;;;8.07;;
58240;SDS011;45058;55.772;38.224;2023-08-17T04:37:29;14.60;;;7.50;;
58240;SDS011;45058;55.772;38.224;2023-08-17T04:39:56;16.20;;;7.28;;
58240;SDS011;45058;55.772;38.224;2023-08-17T04:42:22;20.40;;;8.35;;
58240;SDS011;45058;55.772;38.224;2023-08-17T04:44:50;12.43;;;7.05;;
58240;SDS011;45058;55.772;38.224;2023-08-17T04:47:16;13.98;;;7.32;;
58240;SDS011;45058;55.772;38.224;2023-08-17T04:49:42;15.40;;;7.65;;
58240;SDS011;45058;55.772;38.224;2023-08-17T04:52:08;15.98;;;7.40;;
58240;SDS011;45058;55.772;38.224;2023-08-17T04:54:34;16.83;;;7.40;;
58240;SDS011;45058;55.772;38.224;2023-08-17T04:57:00;14.02;;;6.65;;
58240;SDS011;45058;55.772;38.224;2023-08-17T04:59:26;15.57;;;7.30;;
58240;SDS011;45058;55.772;38.224;2023-08-17T05:01:53;11.27;;;6.45;;
58240;SDS011;45058;55.772;38.224;2023-08-17T05:04:19;12.90;;;6.45;;
58240;SDS011;45058;55.772;38.224;2023-08-17T05:06:45;13.65;;;6.22;;
58240;SDS011;45058;55.772;38.224;2023-08-17T05:09:11;12.25;;;6.70;;
58240;SDS011;45058;55.772;38.224;2023-08-17T05:11:39;10.32;;;6.47;;
58240;SDS011;45058;55.772;38.224;2023-08-17T05:14:05;13.57;;;6.80;;
58240;SDS011;45058;55.772;38.224;2023-08-17T05:16:31;12.45;;;6.63;;
58240;SDS011;45058;55.772;38.224;2023-08-17T05:18:58;8.57;;;5.90;;
58240;SDS011;45058;55.772;38.224;2023-08-17T05:21:26;12.45;;;6.18;;
58240;SDS011;45058;55.772;38.224;2023-08-17T05:23:52;10.55;;;6.00;;
58240;SDS011;45058;55.772;38.224;2023-08-17T05:26:18;18.50;;;5.95;;
58240;SDS011;45058;55.772;38.224;2023-08-17T05:28:44;12.05;;;5.13;;
58240;SDS011;45058;55.772;38.224;2023-08-17T05:31:10;14.95;;;5.97;;
58240;SDS011;45058;55.772;38.224;2023-08-17T05:33:41;11.75;;;5.75;;
58240;SDS011;45058;55.772;38.224;2023-08-17T05:36:07;10.38;;;5.00;;
58240;SDS011;45058;55.772;38.224;2023-08-17T05:38:33;11.30;;;4.75;;
58240;SDS011;45058;55.772;38.224;2023-08-17T05:40:59;13.63;;;4.88;;
58240;SDS011;45058;55.772;38.224;2023-08-17T05:43:27;12.75;;;4.72;;
58240;SDS011;45058;55.772;38.224;2023-08-17T05:45:56;9.38;;;4.55;;
58240;SDS011;45058;55.772;38.224;2023-08-17T05:48:23;8.93;;;4.90;;
58240;SDS011;45058;55.772;38.224;2023-08-17T05:50:49;9.10;;;4.35;;
58240;SDS011;45058;55.772;38.224;2023-08-17T05:53:15;7.97;;;3.72;;
58240;SDS011;45058;55.772;38.224;2023-08-17T05:55:41;13.57;;;4.72;;
58240;SDS011;45058;55.772;38.224;2023-08-17T05:58:07;7.53;;;3.95;;
58240;SDS011;45058;55.772;38.224;2023-08-17T06:00:33;10.48;;;4.22;;
58240;SDS011;45058;55.772;38.224;2023-08-17T06:03:01;7.70;;;3.63;;
58240;SDS011;45058;55.772;38.224;2023-08-17T06:05:28;8.65;;;3.70;;
58240;SDS011;45058;55.772;38.224;2023-08-17T06:07:55;7.75;;;4.07;;
58240;SDS011;45058;55.772;38.224;2023-08-17T06:10:29;15.77;;;4.55;;
58240;SDS011;45058;55.772;38.224;2023-08-17T06:13:07;9.10;;;3.65;;
58240;SDS011;45058;55.772;38.224;2023-08-17T06:15:34;8.15;;;3.78;;
58240;SDS011;45058;55.772;38.224;2023-08-17T06:18:00;8.00;;;3.90;;
58240;SDS011;45058;55.772;38.224;2023-08-17T06:20:26;5.30;;;2.78;;
58240;SDS011;45058;55.772;38.224;2023-08-17T06:22:53;5.80;;;3.25;;
58240;SDS011;45058;55.772;38.224;2023-08-17T06:25:19;14.27;;;3.55;;
58240;SDS011;45058;55.772;38.224;2023-08-17T06:27:48;7.63;;;3.30;;
58240;SDS011;45058;55.772;38.224;2023-08-17T06:30:21;8.80;;;3.63;;
58240;SDS011;45058;55.772;38.224;2023-08-17T06:32:47;10.02;;;2.90;;
58240;SDS011;45058;55.772;38.224;2023-08-17T06:35:32;6.40;;;2.47;;
58240;SDS011;45058;55.772;38.224;2023-08-17T06:38:17;6.40;;;2.25;;
58240;SDS011;45058;55.772;38.224;2023-08-17T06:40:45;7.13;;;3.00;;
58240;SDS011;45058;55.772;38.224;2023-08-17T06:43:12;5.30;;;2.60;;
58240;SDS011;45058;55.772;38.224;2023-08-17T06:45:38;7.35;;;2.78;;
58240;SDS011;45058;55.772;38.224;2023-08-17T06:48:05;8.07;;;2.67;;
58240;SDS011;45058;55.772;38.224;2023-08-17T06:51:15;6.38;;;3.17;;
58240;SDS011;45058;55.772;38.224;2023-08-17T06:53:43;7.60;;;2.37;;
58240;SDS011;45058;55.772;38.224;2023-08-17T06:56:10;5.55;;;2.45;;
58240;SDS011;45058;55.772;38.224;2023-08-17T06:58:38;12.02;;;3.00;;
58240;SDS011;45058;55.772;38.224;2023-08-17T07:01:05;5.28;;;2.50;;
58240;SDS011;45058;55.772;38.224;2023-08-17T07:03:57;5.90;;;2.42;;
58240;SDS011;45058;55.772;38.224;2023-08-17T07:06:48;3.22;;;1.77;;
58240;SDS011;45058;55.772;38.224;2023-08-17T07:10:05;5.78;;;3.92;;
58240;SDS011;45058;55.772;38.224;2023-08-17T07:12:44;6.45;;;2.80;;
58240;SDS011;45058;55.772;38.224;2023-08-17T07:15:18;3.13;;;1.80;;
58240;SDS011;45058;55.772;38.224;2023-08-17T07:17:56;4.73;;;2.30;;
58240;SDS011;45058;55.772;38.224;2023-08-17T07:20:41;2.50;;;1.70;;
58240;SDS011;45058;55.772;38.224;2023-08-17T07:23:15;2.95;;;1.73;;
58240;SDS011;45058;55.772;38.224;2023-08-17T07:25:53;6.55;;;2.28;;
58240;SDS011;45058;55.772;38.224;2023-08-17T07:28:39;5.72;;;2.28;;
58240;SDS011;45058;55.772;38.224;2023-08-17T07:31:24;3.42;;;2.25;;
58240;SDS011;45058;55.772;38.224;2023-08-17T07:34:16;4.80;;;2.40;;
58240;SDS011;45058;55.772;38.224;2023-08-17T07:36:55;6.45;;;2.10;;
58240;SDS011;45058;55.772;38.224;2023-08-17T07:39:47;6.30;;;2.92;;
58240;SDS011;45058;55.772;38.224;2023-08-17T07:42:33;5.72;;;2.92;;
58240;SDS011;45058;55.772;38.224;2023-08-17T07:48:18;4.80;;;2.50;;
58240;SDS011;45058;55.772;38.224;2023-08-17T07:54:26;6.38;;;3.53;;
58240;SDS011;45058;55.772;38.224;2023-08-17T07:57:12;5.18;;;2.20;;
58240;SDS011;45058;55.772;38.224;2023-08-17T08:00:21;8.55;;;2.28;;
58240;SDS011;45058;55.772;38.224;2023-08-17T08:03:00;6.13;;;2.00;;
58240;SDS011;45058;55.772;38.224;2023-08-17T08:05:38;20.27;;;12.00;;
58240;SDS011;45058;55.772;38.224;2023-08-17T08:08:28;4.80;;;2.50;;
58240;SDS011;45058;55.772;38.224;2023-08-17T08:11:14;4.22;;;2.25;;
58240;SDS011;45058;55.772;38.224;2023-08-17T08:14:30;4.47;;;2.20;;
58240;SDS011;45058;55.772;38.224;2023-08-17T08:17:47;6.22;;;2.30;;
58240;SDS011;45058;55.772;38.224;2023-08-17T08:21:10;10.50;;;3.03;;
58240;SDS011;45058;55.772;38.224;2023-08-17T08:23:46;5.65;;;2.10;;
58240;SDS011;45058;55.772;38.224;2023-08-17T08:27:03;7.78;;;2.50;;
58240;SDS011;45058;55.772;38.224;2023-08-17T08:30:01;10.02;;;6.68;;
58240;SDS011;45058;55.772;38.224;2023-08-17T08:32:53;7.22;;;2.20;;
58240;SDS011;45058;55.772;38.224;2023-08-17T08:35:49;6.00;;;1.98;;
58240;SDS011;45058;55.772;38.224;2023-08-17T08:38:39;6.32;;;2.17;;
58240;SDS011;45058;55.772;38.224;2023-08-17T08:41:13;8.30;;;1.98;;
58240;SDS011;45058;55.772;38.224;2023-08-17T08:44:28;9.00;;;2.85;;
58240;SDS011;45058;55.772;38.224;2023-08-17T08:47:02;3.83;;;2.13;;
58240;SDS011;45058;55.772;38.224;2023-08-17T08:49:46;2.67;;;1.77;;
58240;SDS011;45058;55.772;38.224;2023-08-17T08:52:42;5.10;;;2.35;;
58240;SDS011;45058;55.772;38.224;2023-08-17T08:55:23;8.90;;;2.78;;
58240;SDS011;45058;55.772;38.224;2023-08-17T09:01:21;8.27;;;3.05;;
58240;SDS011;45058;55.772;38.224;2023-08-17T09:03:49;3.88;;;2.17;;
58240;SDS011;45058;55.772;38.224;2023-08-17T09:06:35;4.85;;;2.75;;
58240;SDS011;45058;55.772;38.224;2023-08-17T09:09:08;4.80;;;2.47;;
58240;SDS011;45058;55.772;38.224;2023-08-17T09:12:08;7.10;;;3.03;;
58240;SDS011;45058;55.772;38.224;2023-08-17T09:14:59;3.75;;;2.17;;
58240;SDS011;45058;55.772;38.224;2023-08-17T09:17:45;6.13;;;2.65;;
58240;SDS011;45058;55.772;38.224;2023-08-17T09:23:50;4.43;;;2.22;;
58240;SDS011;45058;55.772;38.224;2023-08-17T09:26:34;3.55;;;2.25;;
58240;SDS011;45058;55.772;38.224;2023-08-17T09:29:32;3.55;;;2.35;;
58240;SDS011;45058;55.772;38.224;2023-08-17T09:32:42;8.77;;;3.10;;
58240;SDS011;45058;55.772;38.224;2023-08-17T09:35:34;3.13;;;1.70;;
58240;SDS011;45058;55.772;38.224;2023-08-17T09:38:30;4.60;;;2.30;;
58240;SDS011;45058;55.772;38.224;2023-08-17T09:41:27;4.07;;;2.20;;
58240;SDS011;45058;55.772;38.224;2023-08-17T09:43:54;7.55;;;2.35;;
58240;SDS011;45058;55.772;38.224;2023-08-17T09:46:59;5.95;;;2.30;;
58240;SDS011;45058;55.772;38.224;2023-08-17T09:50:10;3.05;;;2.03;;
58240;SDS011;45058;55.772;38.224;2023-08-17T09:56:10;8.07;;;2.38;;
58240;SDS011;45058;55.772;38.224;2023-08-17T10:02:37;5.40;;;1.90;;
58240;SDS011;45058;55.772;38.224;2023-08-17T10:08:21;2.65;;;2.10;;
58240;SDS011;45058;55.772;38.224;2023-08-17T10:11:16;2.75;;;2.10;;
58240;SDS011;45058;55.772;38.224;2023-08-17T10:14:05;3.35;;;2.40;;
58240;SDS011;45058;55.772;38.224;2023-08-17T10:17:07;4.63;;;2.20;;
58240;SDS011;45058;55.772;38.224;2023-08-17T10:20:06;3.25;;;2.15;;
58240;SDS011;45058;55.772;38.224;2023-08-17T10:26:21;3.38;;;2.25;;
58240;SDS011;45058;55.772;38.224;2023-08-17T10:29:30;11.77;;;2.53;;
58240;SDS011;45058;55.772;38.224;2023-08-17T10:32:21;4.88;;;2.95;;
58240;SDS011;45058;55.772;38.224;2023-08-17T10:35:13;4.15;;;2.80;;
58240;SDS011;45058;55.772;38.224;2023-08-17T10:38:11;6.35;;;2.35;;
58240;SDS011;45058;55.772;38.224;2023-08-17T10:40:44;2.80;;;2.10;;
58240;SDS011;45058;55.772;38.224;2023-08-17T10:43:32;6.68;;;2.60;;
58240;SDS011;45058;55.772;38.224;2023-08-17T10:46:19;9.95;;;2.60;;
58240;SDS011;45058;55.772;38.224;2023-08-17T10:49:26;4.43;;;2.72;;
58240;SDS011;45058;55.772;38.224;2023-08-17T10:52:11;6.90;;;2.50;;
58240;SDS011;45058;55.772;38.224;2023-08-17T10:54:44;3.92;;;2.60;;
58240;SDS011;45058;55.772;38.224;2023-08-17T11:03:32;8.50;;;2.20;;
58240;SDS011;45058;55.772;38.224;2023-08-17T11:06:29;6.80;;;2.55;;
58240;SDS011;45058;55.772;38.224;2023-08-17T11:13:33;6.32;;;2.60;;
58240;SDS011;45058;55.772;38.224;2023-08-17T11:16:24;5.22;;;2.25;;
58240;SDS011;45058;55.772;38.224;2023-08-17T11:22:43;5.55;;;2.08;;
58240;SDS011;45058;55.772;38.224;2023-08-17T11:28:29;6.60;;;2.45;;
58240;SDS011;45058;55.772;38.224;2023-08-17T11:31:16;6.30;;;2.40;;
58240;SDS011;45058;55.772;38.224;2023-08-17T11:34:20;5.35;;;2.50;;
58240;SDS011;45058;55.772;38.224;2023-08-17T11:37:32;2.95;;;2.28;;
58240;SDS011;45058;55.772;38.224;2023-08-17T11:40:25;5.80;;;2.45;;
58240;SDS011;45058;55.772;38.224;2023-08-17T11:43:18;6.55;;;2.30;;
58240;SDS011;45058;55.772;38.224;2023-08-17T11:46:06;3.65;;;2.20;;
58240;SDS011;45058;55.772;38.224;2023-08-17T11:49:12;3.53;;;2.28;;
58240;SDS011;45058;55.772;38.224;2023-08-17T11:55:35;5.68;;;2.72;;
58240;SDS011;45058;55.772;38.224;2023-08-17T11:58:47;6.18;;;2.50;;
58240;SDS011;45058;55.772;38.224;2023-08-17T12:01:32;3.88;;;2.00;;
58240;SDS011;45058;55.772;38.224;2023-08-17T12:04:23;4.00;;;2.22;;
58240;SDS011;45058;55.772;38.224;2023-08-17T12:07:00;3.38;;;2.05;;
58240;SDS011;45058;55.772;38.224;2023-08-17T12:10:10;5.57;;;2.47;;
58240;SDS011;45058;55.772;38.224;2023-08-17T12:13:28;5.97;;;2.55;;
58240;SDS011;45058;55.772;38.224;2023-08-17T12:16:33;4.53;;;2.45;;
58240;SDS011;45058;55.772;38.224;2023-08-17T12:20:01;2.90;;;1.90;;
58240;SDS011;45058;55.772;38.224;2023-08-17T12:23:17;6.85;;;2.90;;
58240;SDS011;45058;55.772;38.224;2023-08-17T12:26:07;8.18;;;2.58;;
58240;SDS011;45058;55.772;38.224;2023-08-17T12:29:04;7.63;;;2.25;;
58240;SDS011;45058;55.772;38.224;2023-08-17T12:32:01;3.60;;;2.50;;
58240;SDS011;45058;55.772;38.224;2023-08-17T12:34:53;4.50;;;2.30;;
58240;SDS011;45058;55.772;38.224;2023-08-17T12:37:38;4.50;;;2.05;;
58240;SDS011;45058;55.772;38.224;2023-08-17T12:41:02;5.15;;;2.47;;
58240;SDS011;45058;55.772;38.224;2023-08-17T12:44:05;3.75;;;2.65;;
58240;SDS011;45058;55.772;38.224;2023-08-17T12:46:46;4.03;;;2.50;;
58240;SDS011;45058;55.772;38.224;2023-08-17T12:49:46;3.15;;;2.10;;
58240;SDS011;45058;55.772;38.224;2023-08-17T12:52:25;3.10;;;2.15;;
58240;SDS011;45058;55.772;38.224;2023-08-17T12:58:25;4.78;;;2.47;;
58240;SDS011;45058;55.772;38.224;2023-08-17T13:01:16;4.50;;;2.50;;
58240;SDS011;45058;55.772;38.224;2023-08-17T13:04:12;5.22;;;2.30;;
58240;SDS011;45058;55.772;38.224;2023-08-17T13:07:17;3.75;;;2.40;;
58240;SDS011;45058;55.772;38.224;2023-08-17T13:10:23;5.30;;;2.38;;
58240;SDS011;45058;55.772;38.224;2023-08-17T15:38:58;10.75;;;3.53;;
58240;SDS011;45058;55.772;38.224;2023-08-17T15:41:31;8.52;;;3.35;;
58240;SDS011;45058;55.772;38.224;2023-08-17T15:44:35;7.03;;;3.50;;
58240;SDS011;45058;55.772;38.224;2023-08-17T15:47:32;13.70;;;3.60;;
58240;SDS011;45058;55.772;38.224;2023-08-17T15:50:13;7.78;;;3.28;;
58240;SDS011;45058;55.772;38.224;2023-08-17T15:52:47;9.82;;;3.80;;
58240;SDS011;45058;55.772;38.224;2023-08-17T15:55:39;15.63;;;4.15;;
58240;SDS011;45058;55.772;38.224;2023-08-17T15:58:17;10.55;;;4.18;;
58240;SDS011;45058;55.772;38.224;2023-08-17T16:01:21;12.38;;;3.85;;
58240;SDS011;45058;55.772;38.224;2023-08-17T16:04:01;13.00;;;4.25;;
58240;SDS011;45058;55.772;38.224;2023-08-17T16:07:05;12.63;;;4.80;;
58240;SDS011;45058;55.772;38.224;2023-08-17T16:09:43;8.63;;;4.03;;
58240;SDS011;45058;55.772;38.224;2023-08-17T16:12:24;10.13;;;4.70;;
58240;SDS011;45058;55.772;38.224;2023-08-17T16:14:52;11.80;;;3.92;;
58240;SDS011;45058;55.772;38.224;2023-08-17T16:18:02;15.13;;;5.05;;
58240;SDS011;45058;55.772;38.224;2023-08-17T16:20:28;9.02;;;4.82;;
58240;SDS011;45058;55.772;38.224;2023-08-17T16:23:08;13.20;;;5.57;;
58240;SDS011;45058;55.772;38.224;2023-08-17T16:26:01;14.02;;;5.63;;
58240;SDS011;45058;55.772;38.224;2023-08-17T16:28:46;11.38;;;4.78;;
58240;SDS011;45058;55.772;38.224;2023-08-17T16:31:14;11.63;;;5.70;;
58240;SDS011;45058;55.772;38.224;2023-08-17T16:34:06;14.90;;;5.97;;
58240;SDS011;45058;55.772;38.224;2023-08-17T16:36:57;12.45;;;6.30;;
58240;SDS011;45058;55.772;38.224;2023-08-17T16:39:45;11.27;;;5.13;;
58240;SDS011;45058;55.772;38.224;2023-08-17T16:45:46;10.60;;;5.20;;
58240;SDS011;45058;55.772;38.224;2023-08-17T16:48:59;9.98;;;5.43;;
58240;SDS011;45058;55.772;38.224;2023-08-17T16:51:57;10.95;;;5.47;;
58240;SDS011;45058;55.772;38.224;2023-08-17T16:57:55;7.95;;;4.70;;
58240;SDS011;45058;55.772;38.224;2023-08-17T17:00:52;10.13;;;4.13;;
58240;SDS011;45058;55.772;38.224;2023-08-17T17:03:46;7.57;;;4.75;;
58240;SDS011;45058;55.772;38.224;2023-08-17T17:06:42;7.80;;;4.25;;
58240;SDS011;45058;55.772;38.224;2023-08-17T17:09:28;10.48;;;4.15;;
58240;SDS011;45058;55.772;38.224;2023-08-17T17:12:02;13.32;;;4.30;;
58240;SDS011;45058;55.772;38.224;2023-08-17T17:14:55;7.05;;;3.83;;
58240;SDS011;45058;55.772;38.224;2023-08-17T17:17:47;10.50;;;3.80;;
58240;SDS011;45058;55.772;38.224;2023-08-17T17:20:21;11.95;;;3.70;;
58240;SDS011;45058;55.772;38.224;2023-08-17T17:23:00;9.52;;;3.78;;
58240;SDS011;45058;55.772;38.224;2023-08-17T17:25:58;10.75;;;4.22;;
58240;SDS011;45058;55.772;38.224;2023-08-17T17:28:40;14.10;;;4.43;;
58240;SDS011;45058;55.772;38.224;2023-08-17T17:31:44;7.32;;;4.40;;
58240;SDS011;45058;55.772;38.224;2023-08-17T17:34:29;9.88;;;4.80;;
58240;SDS011;45058;55.772;38.224;2023-08-17T17:40:38;24.20;;;5.97;;
58240;SDS011;45058;55.772;38.224;2023-08-17T17:43:30;27.45;;;6.55;;
58240;SDS011;45058;55.772;38.224;2023-08-17T17:46:21;18.88;;;5.28;;
58240;SDS011;45058;55.772;38.224;2023-08-17T17:49:02;24.40;;;5.72;;
58240;SDS011;45058;55.772;38.224;2023-08-17T17:51:36;14.25;;;5.38;;
58240;SDS011;45058;55.772;38.224;2023-08-17T17:54:35;21.13;;;6.03;;
58240;SDS011;45058;55.772;38.224;2023-08-17T17:57:27;21.05;;;6.07;;
58240;SDS011;45058;55.772;38.224;2023-08-17T18:00:19;16.23;;;5.68;;
58240;SDS011;45058;55.772;38.224;2023-08-17T18:03:08;23.92;;;6.07;;
58240;SDS011;45058;55.772;38.224;2023-08-17T18:05:51;24.83;;;6.47;;
58240;SDS011;45058;55.772;38.224;2023-08-17T18:08:35;18.00;;;6.57;;
58240;SDS011;45058;55.772;38.224;2023-08-17T18:11:33;18.23;;;6.80;;
58240;SDS011;45058;55.772;38.224;2023-08-17T18:14:37;15.07;;;5.47;;
58240;SDS011;45058;55.772;38.224;2023-08-17T18:17:31;14.02;;;5.50;;
58240;SDS011;45058;55.772;38.224;2023-08-17T18:20:19;18.92;;;5.97;;
58240;SDS011;45058;55.772;38.224;2023-08-17T18:23:16;19.40;;;5.95;;
58240;SDS011;45058;55.772;38.224;2023-08-17T18:26:04;24.80;;;6.30;;
58240;SDS011;45058;55.772;38.224;2023-08-17T18:28:57;20.98;;;6.20;;
58240;SDS011;45058;55.772;38.224;2023-08-17T18:32:07;29.52;;;13.60;;
58240;SDS011;45058;55.772;38.224;2023-08-17T18:34:56;40.80;;;15.68;;
58240;SDS011;45058;55.772;38.224;2023-08-17T18:41:07;24.27;;;9.13;;
58240;SDS011;45058;55.772;38.224;2023-08-17T18:44:07;22.10;;;8.32;;
58240;SDS011;45058;55.772;38.224;2023-08-17T18:46:46;30.20;;;8.27;;
58240;SDS011;45058;55.772;38.224;2023-08-17T18:49:57;20.13;;;7.90;;
58240;SDS011;45058;55.772;38.224;2023-08-17T18:52:43;22.08;;;7.93;;
58240;SDS011;45058;55.772;38.224;2023-08-17T18:55:47;20.75;;;7.03;;
58240;SDS011;45058;55.772;38.224;2023-08-17T18:58:44;23.00;;;8.27;;
58240;SDS011;45058;55.772;38.224;2023-08-17T19:02:01;25.35;;;8.05;;
58240;SDS011;45058;55.772;38.224;2023-08-17T19:07:27;25.15;;;8.38;;
58240;SDS011;45058;55.772;38.224;2023-08-17T19:10:21;26.63;;;8.07;;
58240;SDS011;45058;55.772;38.224;2023-08-17T19:13:35;19.42;;;8.52;;
58240;SDS011;45058;55.772;38.224;2023-08-17T19:16:32;33.90;;;8.65;;